Time;durP1;ratioP1;P1;durP2;ratioP2;P2;SDS_P1;SDS_P2;PMS_P1;PMS_P2;Temp;Humidity;BMP_temperature;BMP_pressure;BME280_temperature;BME280_humidity;BME280_pressure;Samples;Min_cycle;Max_cycle;Signal;HPM_P1;HPM_P2
2022/05/07 00:01:05;;;;;;;;;10.00;7.75;;;;;18.48;46.08;101832.81;5037549;28;45316;-52
2022/05/07 00:03:31;;;;;;;;;14.00;11.25;;;;;18.46;45.85;101838.59;5052386;28;45651;-49
2022/05/07 00:05:56;;;;;;;;;10.00;10.00;;;;;18.39;46.33;101835.94;5037502;28;45785;-50
2022/05/07 00:08:22;;;;;;;;;5.25;5.25;;;;;18.19;46.33;101804.84;5037328;28;45408;-45
2022/05/07 00:10:47;;;;;;;;;10.50;6.50;;;;;18.25;46.66;101826.13;5049333;28;45310;-47
2022/05/07 00:13:13;;;;;;;;;8.00;6.75;;;;;18.10;46.54;101812.66;5053014;28;45308;-49
2022/05/07 00:15:39;;;;;;;;;11.00;8.75;;;;;18.08;46.70;101806.50;5051988;28;45359;-49
2022/05/07 00:18:10;;;;;;;;;7.75;7.75;;;;;18.17;46.64;101829.22;5055019;28;45394;-46
2022/05/07 00:20:37;;;;;;;;;8.80;8.80;;;;;17.93;47.31;101801.34;5057733;28;45479;-46
2022/05/07 00:23:03;;;;;;;;;11.40;9.00;;;;;17.99;47.63;101820.66;5055103;28;46663;-45
2022/05/07 00:25:29;;;;;;;;;9.75;9.75;;;;;17.92;47.65;101828.25;5037040;28;45388;-50
2022/05/07 00:27:54;;;;;;;;;8.75;8.50;;;;;17.95;47.77;101827.81;5037160;28;45431;-48
2022/05/07 00:30:20;;;;;;;;;9.00;8.00;;;;;17.93;47.59;101823.56;5036832;28;45286;-48
2022/05/07 00:32:46;;;;;;;;;8.00;8.00;;;;;17.89;47.87;101826.78;5036132;28;46115;-48
2022/05/07 00:35:11;;;;;;;;;8.75;8.75;;;;;17.72;47.93;101809.94;5052306;28;46130;-47
2022/05/07 00:37:38;;;;;;;;;9.25;7.50;;;;;17.68;48.37;101810.66;5037042;28;45297;-48
2022/05/07 00:40:04;;;;;;;;;10.60;9.00;;;;;17.46;48.51;101787.00;5037009;28;45516;-48
2022/05/07 00:42:30;;;;;;;;;11.20;10.60;;;;;17.67;48.62;101820.06;5036367;28;46356;-47
2022/05/07 00:44:55;;;;;;;;;8.75;7.75;;;;;17.71;48.75;101812.94;5069166;28;45537;-47
2022/05/07 00:47:25;;;;;;;;;12.25;9.75;;;;;17.68;48.58;101811.50;5037073;28;45324;-50
2022/05/07 00:49:53;;;;;;;;;13.20;10.00;;;;;17.69;48.61;101812.34;5037153;28;45539;-47
2022/05/07 00:52:18;;;;;;;;;11.40;11.40;;;;;17.71;48.54;101805.47;5068573;28;46422;-47
2022/05/07 00:54:45;;;;;;;;;11.00;8.50;;;;;17.72;48.45;101801.59;5036395;28;45303;-46
2022/05/07 00:57:13;;;;;;;;;9.80;9.00;;;;;17.71;48.72;101808.25;5034596;28;45367;-47
2022/05/07 00:59:39;;;;;;;;;14.20;12.20;;;;;17.11;48.86;101721.06;5067868;28;45406;-47
2022/05/07 01:02:04;;;;;;;;;9.00;7.00;;;;;17.43;48.78;101781.06;5036699;28;45393;-47
2022/05/07 01:04:30;;;;;;;;;5.75;5.75;;;;;17.55;48.79;101800.56;5036311;28;45411;-48
2022/05/07 01:06:55;;;;;;;;;7.25;7.25;;;;;17.56;48.85;101802.28;5068354;28;45404;-50
2022/05/07 01:09:21;;;;;;;;;10.00;9.00;;;;;17.52;48.87;101801.03;5035438;28;45708;-46
2022/05/07 01:11:46;;;;;;;;;14.00;10.50;;;;;17.49;48.83;101807.88;5035728;28;46133;-47
2022/05/07 01:14:12;;;;;;;;;10.50;10.00;;;;;17.32;49.11;101804.91;5036238;28;45178;-49
2022/05/07 01:16:37;;;;;;;;;11.75;9.00;;;;;17.26;49.35;101801.13;5036060;28;45221;-50
2022/05/07 01:19:03;;;;;;;;;10.00;8.75;;;;;17.11;50.11;101804.28;5068215;28;45487;-49
2022/05/07 01:21:29;;;;;;;;;13.25;10.00;;;;;17.05;49.90;101807.97;5035955;28;45361;-46
2022/05/07 01:23:54;;;;;;;;;10.75;10.75;;;;;16.99;50.02;101808.84;5035595;28;45409;-46
2022/05/07 01:26:21;;;;;;;;;10.25;9.25;;;;;16.58;50.35;101739.97;5034888;28;45630;-46
2022/05/07 01:28:47;;;;;;;;;10.60;9.80;;;;;16.78;49.84;101774.94;5035987;28;45591;-48
2022/05/07 01:31:12;;;;;;;;;14.75;12.00;;;;;16.88;50.41;101794.69;5035513;28;46130;-48
2022/05/07 01:33:38;;;;;;;;;10.25;9.00;;;;;16.60;50.49;101765.50;5034729;28;45521;-46
2022/05/07 01:36:07;;;;;;;;;13.80;10.80;;;;;16.86;50.51;101802.38;5034015;28;45437;-47
2022/05/07 01:38:32;;;;;;;;;11.20;10.00;;;;;16.90;50.34;101800.84;5034808;28;45374;-47
2022/05/07 01:40:59;;;;;;;;;14.75;9.75;;;;;16.91;50.52;101799.75;5020788;28;45375;-46
2022/05/07 01:43:27;;;;;;;;;12.20;10.40;;;;;16.96;50.82;101801.84;5019795;28;45387;-46
2022/05/07 01:45:54;;;;;;;;;14.60;11.40;;;;;16.94;51.18;101802.09;5033242;28;45406;-47
2022/05/07 01:48:19;;;;;;;;;12.20;10.80;;;;;16.88;50.75;101804.91;5035796;28;45377;-47
2022/05/07 01:50:45;;;;;;;;;14.75;12.00;;;;;16.77;51.14;101789.88;5035438;28;45895;-48
2022/05/07 01:53:12;;;;;;;;;13.25;11.00;;;;;16.82;50.89;101806.69;5035249;28;45318;-46
2022/05/07 01:55:37;;;;;;;;;12.40;10.40;;;;;16.70;50.63;101767.75;5035538;28;45417;-47
2022/05/07 01:58:03;;;;;;;;;11.00;10.25;;;;;16.61;51.01;101760.81;5035750;28;45421;-48
2022/05/07 02:00:30;;;;;;;;;11.75;11.75;;;;;16.76;50.58;101790.97;5067133;28;46866;-48
2022/05/07 02:02:56;;;;;;;;;9.40;9.40;;;;;16.70;51.15;101789.09;5067518;28;45617;-48
2022/05/07 02:05:22;;;;;;;;;9.40;9.00;;;;;16.58;50.96;101762.13;5035041;28;45433;-45
2022/05/07 02:07:48;;;;;;;;;10.80;10.80;;;;;16.53;50.81;101757.28;5036972;28;45642;-46
2022/05/07 02:10:13;;;;;;;;;8.00;8.00;;;;;16.62;50.81;101777.25;5038632;28;45826;-46
2022/05/07 02:12:39;;;;;;;;;12.25;11.25;;;;;16.73;51.17;101799.72;5071475;28;45461;-47
2022/05/07 02:15:05;;;;;;;;;11.50;11.25;;;;;16.72;51.31;101790.56;5037711;28;45316;-49
2022/05/07 02:17:31;;;;;;;;;11.00;9.80;;;;;16.71;51.27;101785.25;5038951;28;45212;-47
2022/05/07 02:19:56;;;;;;;;;11.00;10.50;;;;;16.70;51.28;101797.41;5037628;28;46106;-47
2022/05/07 02:22:22;;;;;;;;;11.00;9.00;;;;;16.58;51.11;101775.13;5070651;28;45822;-47
2022/05/07 02:24:47;;;;;;;;;12.00;10.25;;;;;16.65;51.17;101787.03;5038952;28;45252;-46
2022/05/07 02:27:13;;;;;;;;;11.75;11.00;;;;;16.62;51.04;101779.16;5039049;28;45555;-48
2022/05/07 02:29:38;;;;;;;;;17.25;12.00;;;;;16.61;51.50;101786.63;5038231;28;45401;-53
2022/05/07 02:32:05;;;;;;;;;11.50;9.75;;;;;16.49;51.77;101778.19;5038476;28;45464;-48
2022/05/07 02:34:34;;;;;;;;;10.80;10.00;;;;;16.47;51.76;101791.44;5020772;28;45411;-52
2022/05/07 02:37:00;;;;;;;;;10.00;8.80;;;;;16.29;52.24;101771.97;5038688;28;45872;-48
2022/05/07 02:39:25;;;;;;;;;11.25;10.00;;;;;16.39;52.05;101787.00;5037006;28;45905;-51
2022/05/07 02:44:36;;;;;;;;;7.00;7.00;;;;;16.36;52.26;101787.47;5038449;28;45473;-49
2022/05/07 02:47:02;;;;;;;;;12.00;12.00;;;;;16.36;52.08;101794.91;5037542;28;45283;-48
2022/05/07 02:49:27;;;;;;;;;9.20;8.40;;;;;16.29;52.19;101797.75;5038089;28;45739;-47
2022/05/07 02:51:53;;;;;;;;;11.25;10.25;;;;;16.15;52.67;101785.06;5038108;28;45318;-48
2022/05/07 02:54:19;;;;;;;;;12.50;10.50;;;;;16.09;52.76;101790.44;5038539;28;45314;-47
2022/05/07 02:56:44;;;;;;;;;10.25;9.00;;;;;16.09;52.48;101782.13;5036534;28;45589;-47
2022/05/07 02:59:10;;;;;;;;;17.25;10.75;;;;;16.04;53.55;101790.25;5038304;28;45656;-46
2022/05/07 03:01:35;;;;;;;;;10.25;9.25;;;;;16.03;53.04;101796.00;5037800;28;45437;-46
2022/05/07 03:04:00;;;;;;;;;12.00;11.00;;;;;15.94;53.58;101787.13;5037473;28;45437;-46
2022/05/07 03:06:26;;;;;;;;;9.75;9.75;;;;;15.55;53.91;101735.38;5037232;28;45438;-48
2022/05/07 03:08:52;;;;;;;;;11.75;11.00;;;;;15.83;53.86;101794.19;5036811;28;47334;-49
2022/05/07 03:11:18;;;;;;;;;12.75;10.00;;;;;15.80;54.21;101786.34;5038364;28;45381;-47
2022/05/07 03:13:43;;;;;;;;;11.00;8.50;;;;;15.81;54.26;101782.50;5037999;28;45383;-48
2022/05/07 03:16:09;;;;;;;;;9.25;8.25;;;;;15.87;54.15;101784.38;5037059;28;45394;-48
2022/05/07 03:18:35;;;;;;;;;12.75;10.25;;;;;15.87;54.63;101781.59;5037893;28;46103;-47
2022/05/07 03:21:01;;;;;;;;;9.60;9.60;;;;;15.86;54.37;101782.69;5037158;28;45234;-49
2022/05/07 03:23:26;;;;;;;;;11.60;10.40;;;;;15.82;54.37;101773.13;5037081;28;45441;-52
2022/05/07 03:25:52;;;;;;;;;12.75;10.75;;;;;15.68;54.37;101753.81;5037749;28;45338;-52
2022/05/07 03:28:18;;;;;;;;;11.50;9.00;;;;;15.91;54.29;101785.59;5070513;28;45677;-49
2022/05/07 03:30:43;;;;;;;;;12.50;11.25;;;;;15.96;54.45;101783.06;5037668;28;45375;-46
2022/05/07 03:33:08;;;;;;;;;14.75;14.00;;;;;15.97;54.13;101781.97;5008959;28;45373;-46
2022/05/07 03:35:34;;;;;;;;;11.75;10.75;;;;;15.97;54.21;101786.69;5036169;28;45223;-49
2022/05/07 03:38:00;;;;;;;;;8.25;8.25;;;;;15.87;54.64;101787.13;5037767;28;46644;-49
2022/05/07 03:40:25;;;;;;;;;15.50;12.50;;;;;15.76;54.87;101769.31;5037769;28;45745;-47
2022/05/07 03:42:51;;;;;;;;;15.75;12.25;;;;;15.88;54.57;101788.84;5070049;28;45459;-47
2022/05/07 03:45:16;;;;;;;;;14.50;12.75;;;;;15.85;54.60;101776.28;5038138;28;45390;-47
2022/05/07 03:47:42;;;;;;;;;13.75;12.50;;;;;15.89;54.71;101773.91;5037881;28;46250;-46
2022/05/07 03:50:08;;;;;;;;;17.25;15.00;;;;;15.86;54.87;101771.59;5037481;28;45381;-47
2022/05/07 03:55:17;;;;;;;;;14.80;12.80;;;;;15.67;54.62;101748.50;5037599;28;45393;-45
2022/05/07 03:57:43;;;;;;;;;11.75;10.75;;;;;15.90;54.93;101777.53;5037306;28;45726;-47
2022/05/07 04:00:09;;;;;;;;;14.25;11.50;;;;;15.82;55.47;101775.88;5037187;28;45379;-48
2022/05/07 04:02:35;;;;;;;;;17.40;16.60;;;;;15.59;55.42;101733.03;5035843;28;45326;-52
2022/05/07 04:05:04;;;;;;;;;15.80;15.40;;;;;15.76;55.72;101769.31;5037167;28;45570;-49
2022/05/07 04:07:29;;;;;;;;;16.20;13.80;;;;;15.53;55.63;101720.91;5036935;28;45418;-46
2022/05/07 04:09:55;;;;;;;;;14.50;11.75;;;;;15.69;55.75;101760.22;5037255;28;45303;-50
2022/05/07 04:12:23;;;;;;;;;17.00;15.50;;;;;15.72;55.68;101771.69;5037020;28;45575;-49
2022/05/07 04:14:49;;;;;;;;;17.00;13.40;;;;;15.42;55.63;101738.22;5036212;28;45469;-50
2022/05/07 04:17:15;;;;;;;;;14.00;14.00;;;;;15.61;55.94;101766.84;5036398;28;45591;-51
2022/05/07 04:19:40;;;;;;;;;14.75;11.25;;;;;15.50;56.38;101749.03;5069508;28;45737;-49
2022/05/07 04:22:06;;;;;;;;;14.25;14.25;;;;;15.70;55.95;101767.44;5036650;28;45421;-48
2022/05/07 04:24:33;;;;;;;;;14.75;12.75;;;;;15.67;55.75;101754.91;5037218;28;45283;-47
2022/05/07 04:26:59;;;;;;;;;14.00;14.00;;;;;15.53;56.67;101743.03;5036721;28;45658;-45
2022/05/07 04:29:25;;;;;;;;;17.40;13.60;;;;;15.64;55.94;101771.91;5036228;28;45316;-46
2022/05/07 04:31:50;;;;;;;;;15.25;11.00;;;;;15.49;56.33;101746.47;5036796;28;45505;-44
2022/05/07 04:34:16;;;;;;;;;16.00;13.75;;;;;15.64;56.87;101776.63;5036811;28;45547;-48
2022/05/07 04:36:42;;;;;;;;;15.50;14.50;;;;;15.41;57.01;101745.66;5035087;28;47303;-48
2022/05/07 04:39:07;;;;;;;;;16.40;12.20;;;;;15.61;56.72;101771.50;5036704;28;45248;-47
2022/05/07 04:41:33;;;;;;;;;19.25;17.00;;;;;15.57;57.03;101771.97;5036710;28;45317;-48
2022/05/07 04:44:01;;;;;;;;;18.00;16.00;;;;;15.62;56.58;101770.47;5036954;28;45232;-48
2022/05/07 04:46:26;;;;;;;;;17.60;16.40;;;;;15.58;56.95;101770.91;5036444;28;46274;-48
2022/05/07 04:48:52;;;;;;;;;14.00;14.00;;;;;15.58;56.61;101772.81;5036500;28;45291;-48
2022/05/07 04:51:17;;;;;;;;;16.25;13.00;;;;;15.61;56.99;101772.38;5036310;28;45390;-48
2022/05/07 04:53:44;;;;;;;;;19.75;17.75;;;;;15.45;57.54;101768.19;5036593;28;45253;-46
2022/05/07 04:56:09;;;;;;;;;14.60;13.80;;;;;15.22;57.14;101730.88;5034728;28;46382;-47
2022/05/07 04:58:35;;;;;;;;;17.75;16.75;;;;;15.51;56.98;101774.75;5034974;28;45361;-48
2022/05/07 05:01:00;;;;;;;;;22.75;17.25;;;;;15.46;57.44;101758.81;5036645;28;45667;-48
2022/05/07 05:03:26;;;;;;;;;18.75;18.50;;;;;15.52;56.81;101759.88;5035307;28;45450;-48
2022/05/07 05:05:51;;;;;;;;;17.50;16.50;;;;;15.57;56.80;101760.03;5036260;28;46053;-46
2022/05/07 05:08:17;;;;;;;;;20.00;19.00;;;;;15.48;57.16;101744.78;5036356;28;45463;-49
2022/05/07 05:10:42;;;;;;;;;20.50;19.00;;;;;15.62;56.65;101764.94;5036254;28;45341;-49
2022/05/07 05:13:08;;;;;;;;;20.50;19.75;;;;;14.97;56.55;101645.91;5036641;28;45598;-49
2022/05/07 05:15:34;;;;;;;;;17.75;16.50;;;;;15.69;56.99;101769.34;5011908;28;46767;-51
2022/05/07 05:18:00;;;;;;;;;17.50;15.25;;;;;15.42;56.70;101736.28;5031449;28;45792;-50
2022/05/07 05:20:25;;;;;;;;;20.75;16.00;;;;;15.69;56.85;101774.06;5051299;28;45480;-46
2022/05/07 05:22:51;;;;;;;;;24.75;18.50;;;;;15.69;56.60;101776.81;5036567;28;45429;-51
2022/05/07 05:25:19;;;;;;;;;11.00;11.00;;;;;15.71;56.96;101778.28;5034790;28;47036;-51
2022/05/07 05:27:45;;;;;;;;;16.80;16.80;;;;;15.69;56.64;101769.34;5020409;27;45355;-50
2022/05/07 05:30:11;;;;;;;;;17.25;17.00;;;;;15.66;56.83;101758.72;5036148;28;45355;-50
2022/05/07 05:32:37;;;;;;;;;17.80;16.60;;;;;15.69;56.76;101760.22;5036034;28;45391;-52
2022/05/07 05:35:03;;;;;;;;;19.00;16.50;;;;;15.67;57.22;101757.66;5053693;28;45362;-47
2022/05/07 05:37:30;;;;;;;;;16.40;16.40;;;;;15.70;56.90;101759.97;5056324;28;45256;-47
2022/05/07 05:39:55;;;;;;;;;25.00;17.80;;;;;15.76;56.84;101766.56;5056232;28;45396;-47
2022/05/07 05:42:21;;;;;;;;;19.00;16.50;;;;;15.79;56.77;101762.50;5045033;28;45433;-46
2022/05/07 05:44:46;;;;;;;;;22.50;15.00;;;;;15.72;56.94;101770.81;5006174;28;46407;-48
2022/05/07 05:47:12;;;;;;;;;20.25;17.50;;;;;15.70;57.25;101770.22;5053471;28;45375;-49
2022/05/07 05:49:37;;;;;;;;;21.50;18.00;;;;;15.74;57.18;101779.75;5056065;28;45346;-49
2022/05/07 05:52:04;;;;;;;;;21.50;17.00;;;;;15.79;57.14;101782.72;5056250;28;45310;-49
2022/05/07 05:54:29;;;;;;;;;17.80;14.60;;;;;15.84;56.66;101782.91;5055810;28;46758;-51
2022/05/07 05:56:56;;;;;;;;;20.50;17.25;;;;;15.76;56.68;101757.41;5055219;28;45350;-48
2022/05/07 05:59:21;;;;;;;;;18.80;18.80;;;;;15.72;57.67;101774.47;5054077;28;45472;-48
2022/05/07 06:01:47;;;;;;;;;19.00;17.25;;;;;15.73;57.10;101775.28;5016930;28;45431;-47
2022/05/07 06:04:14;;;;;;;;;20.25;19.50;;;;;15.78;56.85;101778.25;5028758;28;47204;-52
2022/05/07 06:06:39;;;;;;;;;22.20;18.20;;;;;15.83;56.82;101778.44;5010740;28;46032;-48
2022/05/07 06:09:05;;;;;;;;;19.75;18.50;;;;;15.81;56.90;101776.97;5028282;28;45374;-54
2022/05/07 06:11:33;;;;;;;;;19.50;16.75;;;;;15.81;57.23;101772.25;5031007;28;45707;-53
2022/05/07 06:13:59;;;;;;;;;17.40;14.00;;;;;15.92;56.66;101773.53;5030675;28;47475;-51
2022/05/07 06:16:24;;;;;;;;;22.00;18.50;;;;;15.98;56.65;101772.63;5018798;28;47894;-51
2022/05/07 06:18:50;;;;;;;;;17.00;16.25;;;;;16.05;56.83;101772.56;5038836;28;45732;-49
2022/05/07 06:21:16;;;;;;;;;18.25;17.75;;;;;16.04;56.65;101770.88;5033592;28;45763;-49
2022/05/07 06:23:41;;;;;;;;;22.75;18.50;;;;;15.89;56.88;101757.31;5030577;28;46289;-50
2022/05/07 06:28:52;;;;;;;;;19.40;17.20;;;;;15.99;56.90;101784.53;5050714;28;45537;-47
2022/05/07 06:31:17;;;;;;;;;24.00;22.00;;;;;15.99;57.44;101792.84;5049665;28;45858;-48
2022/05/07 06:33:45;;;;;;;;;25.75;18.25;;;;;16.06;57.14;101787.28;5050610;28;47628;-50
2022/05/07 06:36:11;;;;;;;;;25.60;21.20;;;;;16.10;56.43;101794.03;5050570;28;45770;-53
2022/05/07 06:38:37;;;;;;;;;21.00;17.50;;;;;16.13;56.69;101796.38;5049527;28;46050;-52
2022/05/07 06:41:03;;;;;;;;;19.50;17.50;;;;;16.19;56.51;101809.34;5050996;28;45512;-54
2022/05/07 06:43:30;;;;;;;;;19.60;17.80;;;;;16.18;56.64;101813.19;5049153;28;45407;-54
2022/05/07 06:45:58;;;;;;;;;25.00;21.00;;;;;16.11;56.79;101809.59;5083479;27;45775;-50
2022/05/07 06:48:25;;;;;;;;;21.80;19.00;;;;;16.05;57.16;101822.41;5050879;28;45774;-51
2022/05/07 06:50:51;;;;;;;;;17.40;16.60;;;;;16.06;56.78;101815.78;5043326;28;46610;-49
2022/05/07 06:53:16;;;;;;;;;27.00;24.40;;;;;16.08;56.81;101818.34;5030162;28;46812;-49
2022/05/07 06:56:00;;;;;;;;;23.00;21.00;;;;;15.80;57.03;101783.56;5065014;28;45681;-49
2022/05/07 06:58:27;;;;;;;;;22.40;18.80;;;;;15.96;57.28;101834.84;5033360;28;45445;-47
2022/05/07 07:00:53;;;;;;;;;23.60;19.40;;;;;15.96;57.05;101821.00;5023172;27;45501;-47
2022/05/07 07:03:19;;;;;;;;;24.20;21.20;;;;;15.93;57.49;101825.03;5039651;28;45653;-52
2022/05/07 07:05:45;;;;;;;;;24.25;19.75;;;;;15.96;57.22;101821.00;5052032;28;45691;-47
2022/05/07 07:08:11;;;;;;;;;22.50;20.00;;;;;16.02;57.21;101825.63;5035303;28;45802;-51
2022/05/07 07:10:37;;;;;;;;;17.40;14.00;;;;;16.02;57.31;101828.41;5048106;28;45963;-50
2022/05/07 07:13:04;;;;;;;;;25.60;20.20;;;;;16.04;57.29;101819.84;5033624;28;46324;-49
2022/05/07 07:15:29;;;;;;;;;25.60;20.80;;;;;16.08;57.17;101823.88;5040043;28;45692;-52
2022/05/07 07:17:55;;;;;;;;;23.50;21.00;;;;;16.16;56.83;101822.78;5053134;28;45982;-55
2022/05/07 07:20:20;;;;;;;;;17.75;16.25;;;;;16.21;57.10;101823.81;5042135;28;46040;-51
2022/05/07 07:22:46;;;;;;;;;24.75;22.25;;;;;15.75;56.92;101739.09;5033478;28;45694;-47
2022/05/07 07:25:12;;;;;;;;;27.00;18.75;;;;;16.28;56.70;101822.91;5046941;28;46251;-52
2022/05/07 07:27:37;;;;;;;;;20.50;18.75;;;;;16.21;57.03;101821.03;5051962;28;45370;-52
2022/05/07 07:30:03;;;;;;;;;22.75;20.75;;;;;16.29;56.44;101822.69;5045134;28;45441;-53
2022/05/07 07:32:29;;;;;;;;;24.80;22.80;;;;;16.35;56.52;101826.47;5053426;28;47818;-49
2022/05/07 07:34:54;;;;;;;;;21.25;19.25;;;;;16.36;56.74;101815.19;5049190;28;45491;-49
2022/05/07 07:37:20;;;;;;;;;16.00;14.25;;;;;16.33;56.96;101829.47;5046340;28;45362;-49
2022/05/07 07:39:45;;;;;;;;;22.25;19.25;;;;;16.17;56.62;101791.25;5003915;28;46036;-47
2022/05/07 07:42:11;;;;;;;;;21.00;20.25;;;;;16.38;56.63;101826.88;5032302;28;46034;-48
2022/05/07 07:44:36;;;;;;;;;16.25;16.00;;;;;16.36;56.80;101815.19;5032486;28;45448;-50
2022/05/07 07:49:47;;;;;;;;;17.40;15.80;;;;;16.25;56.58;101791.81;5032669;28;45437;-50
2022/05/07 07:52:13;;;;;;;;;24.00;18.50;;;;;16.47;56.24;101821.03;5041836;28;47431;-47
2022/05/07 07:54:39;;;;;;;;;21.60;20.60;;;;;16.52;56.22;101819.31;5050272;28;46055;-47
2022/05/07 07:57:05;;;;;;;;;16.60;14.60;;;;;16.51;56.35;101819.53;5040036;28;45596;-50
2022/05/07 07:59:30;;;;;;;;;20.40;15.60;;;;;16.58;55.95;101819.47;5032604;28;45765;-51
2022/05/07 08:01:56;;;;;;;;;20.25;19.00;;;;;16.57;56.16;101820.53;5032587;28;45774;-52
2022/05/07 08:04:25;;;;;;;;;18.00;16.25;;;;;16.63;55.99;101816.88;5040890;28;45409;-52
2022/05/07 08:12:25;;;;;;;;;14.60;12.60;;;;;16.84;55.52;101807.31;5052826;28;45801;-51
2022/05/07 08:14:50;;;;;;;;;20.00;16.40;;;;;16.80;55.56;101815.22;5043557;28;45900;-56
2022/05/07 08:17:16;;;;;;;;;21.00;17.50;;;;;16.52;55.87;101769.44;5047541;28;45432;-51
2022/05/07 08:19:43;;;;;;;;;21.75;17.00;;;;;16.65;55.95;101796.16;5051825;28;45567;-48
2022/05/07 08:22:09;;;;;;;;;19.80;17.20;;;;;16.65;55.78;101778.72;5034756;28;48181;-49
2022/05/07 08:24:34;;;;;;;;;18.00;16.25;;;;;16.91;55.60;101812.75;5051505;28;45529;-47
2022/05/07 08:27:00;;;;;;;;;20.25;20.25;;;;;16.83;55.14;101796.44;5035016;28;45484;-49
2022/05/07 08:29:27;;;;;;;;;16.25;15.00;;;;;16.88;55.64;101816.88;5032791;28;45709;-49
2022/05/07 08:31:52;;;;;;;;;18.60;16.20;;;;;16.86;55.54;101807.91;5032282;28;46269;-48
2022/05/07 08:34:18;;;;;;;;;16.25;14.00;;;;;16.98;55.50;101816.34;5066663;27;45970;-50
2022/05/07 08:36:43;;;;;;;;;17.75;15.25;;;;;16.85;55.25;101778.50;5032058;28;45971;-50
2022/05/07 08:39:09;;;;;;;;;20.25;18.25;;;;;17.13;55.13;101812.38;5032852;28;45397;-47
2022/05/07 08:41:35;;;;;;;;;18.75;18.00;;;;;17.14;55.52;101812.13;5047735;28;46519;-51
2022/05/07 08:44:00;;;;;;;;;21.25;17.25;;;;;17.13;55.00;101802.13;5050737;28;45697;-52
2022/05/07 08:46:26;;;;;;;;;18.00;15.50;;;;;17.13;55.24;101813.22;5051776;28;45534;-48
2022/05/07 08:48:51;;;;;;;;;21.25;17.50;;;;;17.01;55.68;101803.91;5052811;28;45563;-47
2022/05/07 08:51:18;;;;;;;;;20.25;17.00;;;;;17.00;54.90;101782.81;5052868;28;46011;-48
2022/05/07 08:53:44;;;;;;;;;19.40;17.80;;;;;17.28;54.73;101814.78;5043384;28;45346;-50
2022/05/07 08:56:10;;;;;;;;;23.20;19.00;;;;;17.19;54.88;101801.19;5046038;28;45667;-49
2022/05/07 08:58:36;;;;;;;;;16.20;16.20;;;;;17.23;54.68;101793.25;5065118;28;45586;-53
2022/05/07 09:01:02;;;;;;;;;17.50;15.75;;;;;17.37;54.52;101795.88;5031359;28;45983;-49
2022/05/07 09:03:38;;;;;;;;;14.75;14.00;;;;;17.58;54.23;101809.28;5064282;28;45785;-48
2022/05/07 09:06:23;;;;;;;;;18.60;16.80;;;;;17.71;53.85;101807.38;5039934;27;45515;-48
2022/05/07 09:08:48;;;;;;;;;17.20;15.40;;;;;17.77;54.37;101806.44;5038339;28;45844;-47
2022/05/07 09:11:16;;;;;;;;;15.50;12.00;;;;;17.84;53.76;101801.69;5066658;27;46421;-49
2022/05/07 09:13:42;;;;;;;;;17.60;15.00;;;;;17.88;53.56;101802.06;5051330;28;45753;-51
2022/05/07 09:16:08;;;;;;;;;18.00;17.00;;;;;17.95;53.51;101805.59;5033971;28;45714;-52
2022/05/07 09:18:34;;;;;;;;;17.40;16.40;;;;;17.98;53.55;101799.53;5039961;28;46024;-51
2022/05/07 09:21:16;;;;;;;;;22.75;17.00;;;;;18.00;53.19;101797.38;5029745;28;45699;-48
2022/05/07 09:24:07;;;;;;;;;18.20;16.40;;;;;18.00;53.05;101802.91;5039291;28;45630;-49
2022/05/07 09:26:39;;;;;;;;;15.80;14.60;;;;;18.07;53.59;101802.00;5033513;28;45764;-52
2022/05/07 09:29:11;;;;;;;;;17.20;16.20;;;;;18.07;53.17;101786.19;5038522;28;45386;-49
2022/05/07 09:31:38;;;;;;;;;14.60;13.40;;;;;18.09;53.38;101784.03;5048634;28;45848;-50
2022/05/07 09:37:23;;;;;;;;;18.20;16.20;;;;;18.33;52.87;101786.00;5051252;28;45714;-47
2022/05/07 09:39:52;;;;;;;;;18.00;14.20;;;;;18.39;52.74;101785.91;5051445;28;45564;-54
2022/05/07 09:42:21;;;;;;;;;18.40;15.00;;;;;18.48;52.46;101788.34;5050000;28;46078;-48
2022/05/07 09:44:47;;;;;;;;;18.20;16.60;;;;;18.47;52.67;101786.63;5048206;28;45513;-51
2022/05/07 09:47:13;;;;;;;;;16.50;14.00;;;;;18.53;52.41;101785.69;5051293;28;45377;-49
2022/05/07 09:50:19;;;;;;;;;22.75;18.00;;;;;18.41;52.41;101755.09;5051795;28;46000;-47
2022/05/07 09:52:28;;;;;;;;;14.20;12.40;;;;;18.82;51.75;101785.81;5046439;28;45427;-49
2022/05/07 09:57:38;;;;;;;;;21.60;19.00;;;;;19.09;51.15;101779.75;5030323;28;45394;-50
2022/05/07 10:00:10;;;;;;;;;14.75;12.75;;;;;19.17;51.03;101778.53;5040677;28;45855;-51
2022/05/07 10:02:41;;;;;;;;;16.80;14.20;;;;;19.23;50.69;101777.56;5048980;28;46643;-49
2022/05/07 10:05:44;;;;;;;;;16.80;16.00;;;;;19.40;50.64;101768.44;5049918;28;45748;-50
2022/05/07 10:08:27;;;;;;;;;18.60;17.00;;;;;19.39;50.19;101750.91;5042361;27;45805;-51
2022/05/07 10:10:53;;;;;;;;;20.80;18.60;;;;;19.60;49.80;101766.09;5037482;28;45445;-54
2022/05/07 10:13:24;;;;;;;;;18.75;18.25;;;;;19.80;49.75;101778.69;5029184;28;47734;-50
2022/05/07 10:16:00;;;;;;;;;21.20;17.60;;;;;19.98;49.39;101782.41;5045883;28;45545;-49
2022/05/07 10:18:38;;;;;;;;;16.00;15.00;;;;;20.11;49.19;101784.03;5047895;28;45588;-48
2022/05/07 10:21:17;;;;;;;;;13.60;13.20;;;;;20.13;49.07;101782.66;5051528;28;45378;-49
2022/05/07 10:23:55;;;;;;;;;16.60;15.00;;;;;20.14;48.90;101777.94;5050812;28;45615;-47
2022/05/07 10:26:36;;;;;;;;;15.60;15.60;;;;;20.15;48.96;101772.13;5042089;28;45444;-51
2022/05/07 10:29:03;;;;;;;;;18.80;15.20;;;;;20.20;49.02;101768.59;5045360;28;45864;-47
2022/05/07 10:31:29;;;;;;;;;17.60;14.40;;;;;20.20;48.71;101776.09;5039597;28;45457;-50
2022/05/07 10:33:55;;;;;;;;;18.00;15.75;;;;;20.20;48.67;101778.88;5038057;28;45776;-45
2022/05/07 10:36:21;;;;;;;;;14.80;14.80;;;;;20.22;49.02;101773.91;5038241;28;45444;-47
2022/05/07 10:38:47;;;;;;;;;16.00;15.00;;;;;20.31;48.33;101767.66;5038516;28;45414;-49
2022/05/07 10:41:15;;;;;;;;;17.25;16.00;;;;;20.39;47.71;101771.97;5038928;28;45358;-50
2022/05/07 10:43:42;;;;;;;;;13.80;13.40;;;;;20.22;47.67;101735.72;5037971;28;46158;-47
2022/05/07 10:46:20;;;;;;;;;14.40;12.40;;;;;20.47;48.08;101767.91;5036882;28;45583;-46
2022/05/07 10:48:50;;;;;;;;;17.60;14.40;;;;;20.40;48.03;101748.59;5038452;28;45406;-46
2022/05/07 10:51:40;;;;;;;;;13.80;13.00;;;;;20.54;47.80;101764.97;5038392;28;45329;-46
2022/05/07 10:54:24;;;;;;;;;13.60;13.40;;;;;20.50;47.95;101761.84;5040594;28;47772;-47
2022/05/07 10:56:56;;;;;;;;;16.60;13.80;;;;;20.55;47.68;101772.22;5036579;28;45555;-50
2022/05/07 10:59:23;;;;;;;;;12.40;12.40;;;;;20.60;47.39;101769.53;5038152;28;45595;-47
2022/05/07 11:01:48;;;;;;;;;16.00;13.60;;;;;20.51;47.12;101743.16;5038008;28;45355;-48
2022/05/07 11:04:17;;;;;;;;;12.00;11.00;;;;;;;;5038453;28;45854;-48
2022/05/07 11:06:52;;;;;;;;;19.00;17.20;;;;;20.44;46.78;101718.25;5036584;28;45271;-46
2022/05/07 11:09:24;;;;;;;;;12.20;12.00;;;;;20.74;47.00;101761.63;5037416;28;45409;-51
2022/05/07 11:11:54;;;;;;;;;17.40;14.40;;;;;20.68;46.62;101732.81;5037203;28;45408;-46
2022/05/07 11:14:32;;;;;;;;;20.00;19.20;;;;;20.91;46.35;101750.47;5037605;28;45374;-48
2022/05/07 11:16:59;;;;;;;;;17.20;16.60;;;;;20.72;46.25;101711.66;5035110;28;45496;-46
2022/05/07 11:19:28;;;;;;;;;13.00;13.00;;;;;21.04;46.35;101745.59;5036767;28;45477;-45
2022/05/07 11:21:54;;;;;;;;;16.60;13.20;;;;;20.89;45.98;101716.41;5037543;28;45312;-49
2022/05/07 11:24:22;;;;;;;;;15.80;14.20;;;;;21.06;45.95;101743.38;5036633;28;45408;-51
2022/05/07 11:27:05;;;;;;;;;13.60;13.60;;;;;20.91;46.68;101736.50;5037662;28;46114;-50
2022/05/07 11:29:31;;;;;;;;;14.20;13.40;;;;;20.77;47.13;101735.16;5037887;28;45458;-47
2022/05/07 11:32:04;;;;;;;;;11.75;10.25;;;;;20.76;47.39;101742.69;5037948;28;45500;-48
2022/05/07 11:34:40;;;;;;;;;13.00;12.60;;;;;20.82;47.07;101743.63;5037647;28;47341;-54